KEST

Estherville Municipal Airport

Estherville, Iowa, USA
METAR KEST 221952Z AUTO 31012KT 10SM CLR 18/M03 A3011 RMK AO2 SLP201 T01831028
Observed Flight Rules
Oct-22 @ 19:52 UTC (56 minutes ago) Visual Flight Rules
Wind Visibility Clouds
310° at 12 knots 10 miles
  • Clear skies
Temperatures Readings
Current 18°C / 64°F
Dewpoint -3°C / 27°F
Humidity 24%
Altimeter 30.11" Hg
Pressure 1020.1 hPa
Elevation 401
METAR KEST 221952Z AUTO 31012KT 10SM CLR 18/M03 A3011 RMK AO2 SLP201 T01831028
Observed Flight Rules
Oct-22 @ 19:52 UTC
(56 minutes ago)
VFR
Wind Visibility
310° at 12 knots 10 miles
Clouds
  • Clear skies
Temperature Dewpoint
18°C / 64°F -3°C / 27°F
Humidity Altimeter Pressure
24% 30.11" Hg 1020.1 hPa